sensor_id;sensor_type;location;lat;lon;timestamp;P1;durP1;ratioP1;P2;durP2;ratioP2
17925;SDS011;9088;55.674;13.354;2023-03-24T00:02:01;2.40;;;2.30;;
17925;SDS011;9088;55.674;13.354;2023-03-24T00:04:28;2.40;;;2.30;;
17925;SDS011;9088;55.674;13.354;2023-03-24T00:06:55;2.70;;;2.60;;
17925;SDS011;9088;55.674;13.354;2023-03-24T00:09:24;2.60;;;2.50;;
17925;SDS011;9088;55.674;13.354;2023-03-24T00:11:52;2.40;;;2.30;;
17925;SDS011;9088;55.674;13.354;2023-03-24T00:14:19;2.40;;;2.30;;
17925;SDS011;9088;55.674;13.354;2023-03-24T00:16:47;2.20;;;2.10;;
17925;SDS011;9088;55.674;13.354;2023-03-24T00:19:15;2.30;;;2.20;;
17925;SDS011;9088;55.674;13.354;2023-03-24T00:21:44;2.27;;;2.17;;
17925;SDS011;9088;55.674;13.354;2023-03-24T00:24:11;2.40;;;2.30;;
17925;SDS011;9088;55.674;13.354;2023-03-24T00:26:39;2.37;;;2.27;;
17925;SDS011;9088;55.674;13.354;2023-03-24T00:29:07;2.50;;;2.40;;
17925;SDS011;9088;55.674;13.354;2023-03-24T00:31:35;2.50;;;2.40;;
17925;SDS011;9088;55.674;13.354;2023-03-24T00:34:04;2.43;;;2.33;;
17925;SDS011;9088;55.674;13.354;2023-03-24T00:36:32;2.40;;;2.30;;
17925;SDS011;9088;55.674;13.354;2023-03-24T00:38:59;2.40;;;2.30;;
17925;SDS011;9088;55.674;13.354;2023-03-24T00:41:27;2.40;;;2.30;;
17925;SDS011;9088;55.674;13.354;2023-03-24T00:43:56;2.33;;;2.23;;
17925;SDS011;9088;55.674;13.354;2023-03-24T00:46:30;2.40;;;2.30;;
17925;SDS011;9088;55.674;13.354;2023-03-24T00:48:59;2.60;;;2.50;;
17925;SDS011;9088;55.674;13.354;2023-03-24T00:51:30;2.53;;;2.43;;
17925;SDS011;9088;55.674;13.354;2023-03-24T00:53:59;2.60;;;2.50;;
17925;SDS011;9088;55.674;13.354;2023-03-24T00:56:26;2.43;;;2.33;;
17925;SDS011;9088;55.674;13.354;2023-03-24T00:58:56;2.70;;;2.60;;
17925;SDS011;9088;55.674;13.354;2023-03-24T01:01:27;2.70;;;2.60;;
17925;SDS011;9088;55.674;13.354;2023-03-24T01:03:54;2.80;;;2.70;;
17925;SDS011;9088;55.674;13.354;2023-03-24T01:06:21;2.67;;;2.57;;
17925;SDS011;9088;55.674;13.354;2023-03-24T01:08:49;2.67;;;2.57;;
17925;SDS011;9088;55.674;13.354;2023-03-24T01:11:18;2.80;;;2.70;;
17925;SDS011;9088;55.674;13.354;2023-03-24T01:13:45;2.90;;;2.80;;
17925;SDS011;9088;55.674;13.354;2023-03-24T01:16:14;2.80;;;2.70;;
17925;SDS011;9088;55.674;13.354;2023-03-24T01:18:41;2.70;;;2.60;;
17925;SDS011;9088;55.674;13.354;2023-03-24T01:21:09;2.47;;;2.37;;
17925;SDS011;9088;55.674;13.354;2023-03-24T01:23:36;2.40;;;2.30;;
17925;SDS011;9088;55.674;13.354;2023-03-24T01:26:04;2.40;;;2.30;;
17925;SDS011;9088;55.674;13.354;2023-03-24T01:28:31;2.57;;;2.47;;
17925;SDS011;9088;55.674;13.354;2023-03-24T01:31:04;2.57;;;2.47;;
17925;SDS011;9088;55.674;13.354;2023-03-24T01:33:32;2.50;;;2.40;;
17925;SDS011;9088;55.674;13.354;2023-03-24T01:35:59;2.30;;;2.20;;
17925;SDS011;9088;55.674;13.354;2023-03-24T01:38:26;2.40;;;2.30;;
17925;SDS011;9088;55.674;13.354;2023-03-24T01:40:53;2.40;;;2.30;;
17925;SDS011;9088;55.674;13.354;2023-03-24T01:43:29;2.53;;;2.43;;
17925;SDS011;9088;55.674;13.354;2023-03-24T01:45:57;2.60;;;2.50;;
17925;SDS011;9088;55.674;13.354;2023-03-24T01:48:27;2.60;;;2.50;;
17925;SDS011;9088;55.674;13.354;2023-03-24T01:50:57;2.60;;;2.50;;
17925;SDS011;9088;55.674;13.354;2023-03-24T01:53:25;2.70;;;2.60;;
17925;SDS011;9088;55.674;13.354;2023-03-24T01:55:52;2.70;;;2.60;;
17925;SDS011;9088;55.674;13.354;2023-03-24T01:58:20;2.80;;;2.70;;
17925;SDS011;9088;55.674;13.354;2023-03-24T02:00:47;2.60;;;2.50;;
17925;SDS011;9088;55.674;13.354;2023-03-24T02:03:16;2.80;;;2.70;;
17925;SDS011;9088;55.674;13.354;2023-03-24T02:05:45;2.60;;;2.50;;
17925;SDS011;9088;55.674;13.354;2023-03-24T02:08:15;2.90;;;2.80;;
17925;SDS011;9088;55.674;13.354;2023-03-24T02:10:43;2.87;;;2.77;;
17925;SDS011;9088;55.674;13.354;2023-03-24T02:13:10;2.80;;;2.70;;
17925;SDS011;9088;55.674;13.354;2023-03-24T02:15:40;3.00;;;2.90;;
17925;SDS011;9088;55.674;13.354;2023-03-24T02:18:15;3.10;;;3.00;;
17925;SDS011;9088;55.674;13.354;2023-03-24T02:20:51;2.90;;;2.80;;
17925;SDS011;9088;55.674;13.354;2023-03-24T02:23:32;3.10;;;3.00;;
17925;SDS011;9088;55.674;13.354;2023-03-24T02:26:07;3.20;;;3.10;;
17925;SDS011;9088;55.674;13.354;2023-03-24T02:28:44;3.17;;;3.07;;
17925;SDS011;9088;55.674;13.354;2023-03-24T02:31:22;3.30;;;3.20;;
17925;SDS011;9088;55.674;13.354;2023-03-24T02:34:04;2.90;;;2.80;;
17925;SDS011;9088;55.674;13.354;2023-03-24T02:36:54;3.00;;;2.90;;
17925;SDS011;9088;55.674;13.354;2023-03-24T02:39:34;3.00;;;2.90;;
17925;SDS011;9088;55.674;13.354;2023-03-24T02:42:03;3.00;;;2.90;;
17925;SDS011;9088;55.674;13.354;2023-03-24T02:44:33;3.20;;;3.10;;
17925;SDS011;9088;55.674;13.354;2023-03-24T02:47:08;2.80;;;2.70;;
17925;SDS011;9088;55.674;13.354;2023-03-24T02:49:37;3.10;;;3.00;;
17925;SDS011;9088;55.674;13.354;2023-03-24T02:52:09;3.10;;;3.00;;
17925;SDS011;9088;55.674;13.354;2023-03-24T02:54:41;3.10;;;3.00;;
17925;SDS011;9088;55.674;13.354;2023-03-24T02:57:11;3.20;;;3.10;;
17925;SDS011;9088;55.674;13.354;2023-03-24T02:59:41;3.30;;;3.20;;
17925;SDS011;9088;55.674;13.354;2023-03-24T03:02:11;2.90;;;2.80;;
17925;SDS011;9088;55.674;13.354;2023-03-24T03:04:41;3.20;;;3.10;;
17925;SDS011;9088;55.674;13.354;2023-03-24T03:07:14;3.30;;;3.20;;
17925;SDS011;9088;55.674;13.354;2023-03-24T03:09:47;3.40;;;3.30;;
17925;SDS011;9088;55.674;13.354;2023-03-24T03:12:16;3.00;;;2.90;;
17925;SDS011;9088;55.674;13.354;2023-03-24T03:14:46;3.10;;;3.00;;
17925;SDS011;9088;55.674;13.354;2023-03-24T03:17:14;3.20;;;3.10;;
17925;SDS011;9088;55.674;13.354;2023-03-24T03:19:43;3.00;;;2.90;;
17925;SDS011;9088;55.674;13.354;2023-03-24T03:22:15;3.30;;;3.20;;
17925;SDS011;9088;55.674;13.354;2023-03-24T03:24:44;3.27;;;3.17;;
17925;SDS011;9088;55.674;13.354;2023-03-24T03:27:17;3.10;;;3.00;;
17925;SDS011;9088;55.674;13.354;2023-03-24T03:29:46;3.20;;;3.10;;
17925;SDS011;9088;55.674;13.354;2023-03-24T03:32:16;3.30;;;3.20;;
17925;SDS011;9088;55.674;13.354;2023-03-24T03:34:44;3.30;;;3.20;;
17925;SDS011;9088;55.674;13.354;2023-03-24T03:37:14;3.00;;;2.90;;
17925;SDS011;9088;55.674;13.354;2023-03-24T03:39:46;3.07;;;2.97;;
17925;SDS011;9088;55.674;13.354;2023-03-24T03:42:16;2.90;;;2.80;;
17925;SDS011;9088;55.674;13.354;2023-03-24T03:44:43;3.10;;;3.00;;
17925;SDS011;9088;55.674;13.354;2023-03-24T03:47:10;3.10;;;3.00;;
17925;SDS011;9088;55.674;13.354;2023-03-24T03:49:39;2.90;;;2.80;;
17925;SDS011;9088;55.674;13.354;2023-03-24T03:52:06;3.10;;;3.00;;
17925;SDS011;9088;55.674;13.354;2023-03-24T03:54:33;2.90;;;2.80;;
17925;SDS011;9088;55.674;13.354;2023-03-24T03:57:01;3.10;;;3.00;;
17925;SDS011;9088;55.674;13.354;2023-03-24T03:59:31;3.30;;;3.20;;
17925;SDS011;9088;55.674;13.354;2023-03-24T04:01:59;3.00;;;2.90;;
17925;SDS011;9088;55.674;13.354;2023-03-24T04:07:22;2.90;;;2.80;;
17925;SDS011;9088;55.674;13.354;2023-03-24T04:09:54;3.03;;;2.93;;
17925;SDS011;9088;55.674;13.354;2023-03-24T04:12:30;2.93;;;2.83;;
17925;SDS011;9088;55.674;13.354;2023-03-24T04:15:08;2.60;;;2.50;;
17925;SDS011;9088;55.674;13.354;2023-03-24T04:17:44;2.63;;;2.53;;
17925;SDS011;9088;55.674;13.354;2023-03-24T04:20:15;2.60;;;2.50;;
17925;SDS011;9088;55.674;13.354;2023-03-24T04:22:50;2.70;;;2.60;;
17925;SDS011;9088;55.674;13.354;2023-03-24T04:25:19;2.70;;;2.60;;
17925;SDS011;9088;55.674;13.354;2023-03-24T04:27:52;2.73;;;2.63;;
17925;SDS011;9088;55.674;13.354;2023-03-24T04:30:27;2.70;;;2.60;;
17925;SDS011;9088;55.674;13.354;2023-03-24T04:32:57;2.60;;;2.50;;
17925;SDS011;9088;55.674;13.354;2023-03-24T04:35:25;2.60;;;2.50;;
17925;SDS011;9088;55.674;13.354;2023-03-24T04:37:56;2.30;;;2.20;;
17925;SDS011;9088;55.674;13.354;2023-03-24T04:40:26;2.60;;;2.50;;
17925;SDS011;9088;55.674;13.354;2023-03-24T04:42:54;2.70;;;2.60;;
17925;SDS011;9088;55.674;13.354;2023-03-24T04:45:22;2.50;;;2.40;;
17925;SDS011;9088;55.674;13.354;2023-03-24T04:47:52;2.50;;;2.40;;
17925;SDS011;9088;55.674;13.354;2023-03-24T04:50:30;2.90;;;2.80;;
17925;SDS011;9088;55.674;13.354;2023-03-24T04:52:58;2.80;;;2.70;;
17925;SDS011;9088;55.674;13.354;2023-03-24T04:58:07;3.00;;;2.90;;
17925;SDS011;9088;55.674;13.354;2023-03-24T05:00:34;2.50;;;2.40;;
17925;SDS011;9088;55.674;13.354;2023-03-24T05:03:05;2.20;;;2.10;;
17925;SDS011;9088;55.674;13.354;2023-03-24T05:05:38;2.50;;;2.40;;
17925;SDS011;9088;55.674;13.354;2023-03-24T05:08:05;2.50;;;2.40;;
17925;SDS011;9088;55.674;13.354;2023-03-24T05:10:35;2.80;;;2.70;;
17925;SDS011;9088;55.674;13.354;2023-03-24T05:13:03;2.70;;;2.60;;
17925;SDS011;9088;55.674;13.354;2023-03-24T05:15:36;2.50;;;2.40;;
17925;SDS011;9088;55.674;13.354;2023-03-24T05:18:04;2.30;;;2.20;;
17925;SDS011;9088;55.674;13.354;2023-03-24T05:20:31;2.20;;;2.10;;
17925;SDS011;9088;55.674;13.354;2023-03-24T05:22:58;2.20;;;2.10;;
17925;SDS011;9088;55.674;13.354;2023-03-24T05:25:25;2.17;;;2.07;;
17925;SDS011;9088;55.674;13.354;2023-03-24T05:27:53;2.10;;;2.00;;
17925;SDS011;9088;55.674;13.354;2023-03-24T05:30:20;2.20;;;2.10;;
17925;SDS011;9088;55.674;13.354;2023-03-24T05:32:47;2.00;;;1.93;;
17925;SDS011;9088;55.674;13.354;2023-03-24T05:35:16;2.17;;;2.07;;
17925;SDS011;9088;55.674;13.354;2023-03-24T05:37:43;2.00;;;1.90;;
17925;SDS011;9088;55.674;13.354;2023-03-24T05:40:10;2.10;;;2.00;;
17925;SDS011;9088;55.674;13.354;2023-03-24T05:42:37;2.10;;;2.00;;
17925;SDS011;9088;55.674;13.354;2023-03-24T05:45:07;1.80;;;1.80;;
17925;SDS011;9088;55.674;13.354;2023-03-24T05:47:34;2.37;;;2.27;;
17925;SDS011;9088;55.674;13.354;2023-03-24T05:50:01;9.93;;;9.53;;
17925;SDS011;9088;55.674;13.354;2023-03-24T05:52:29;9.83;;;9.43;;
17925;SDS011;9088;55.674;13.354;2023-03-24T05:54:57;9.63;;;9.23;;
17925;SDS011;9088;55.674;13.354;2023-03-24T05:57:24;10.20;;;9.80;;
17925;SDS011;9088;55.674;13.354;2023-03-24T05:59:54;7.90;;;7.60;;
17925;SDS011;9088;55.674;13.354;2023-03-24T06:02:21;7.87;;;7.57;;
17925;SDS011;9088;55.674;13.354;2023-03-24T06:04:48;7.80;;;7.50;;
17925;SDS011;9088;55.674;13.354;2023-03-24T06:07:16;7.90;;;7.60;;
17925;SDS011;9088;55.674;13.354;2023-03-24T06:09:44;7.63;;;7.33;;
17925;SDS011;9088;55.674;13.354;2023-03-24T06:12:14;7.20;;;6.90;;
17925;SDS011;9088;55.674;13.354;2023-03-24T06:14:42;7.83;;;7.53;;
17925;SDS011;9088;55.674;13.354;2023-03-24T06:17:09;7.33;;;7.03;;
17925;SDS011;9088;55.674;13.354;2023-03-24T06:19:39;7.33;;;7.03;;
17925;SDS011;9088;55.674;13.354;2023-03-24T06:22:13;7.90;;;7.60;;
17925;SDS011;9088;55.674;13.354;2023-03-24T06:24:40;7.33;;;7.03;;
17925;SDS011;9088;55.674;13.354;2023-03-24T06:27:11;7.77;;;7.47;;
17925;SDS011;9088;55.674;13.354;2023-03-24T06:29:39;7.70;;;7.40;;
17925;SDS011;9088;55.674;13.354;2023-03-24T06:32:13;7.50;;;7.20;;
17925;SDS011;9088;55.674;13.354;2023-03-24T06:34:40;7.83;;;7.53;;
17925;SDS011;9088;55.674;13.354;2023-03-24T06:37:07;7.37;;;7.07;;
17925;SDS011;9088;55.674;13.354;2023-03-24T06:39:34;7.00;;;6.70;;
17925;SDS011;9088;55.674;13.354;2023-03-24T06:42:01;7.47;;;7.17;;
17925;SDS011;9088;55.674;13.354;2023-03-24T06:44:30;7.23;;;6.93;;
17925;SDS011;9088;55.674;13.354;2023-03-24T06:46:57;7.53;;;7.23;;
17925;SDS011;9088;55.674;13.354;2023-03-24T06:49:24;7.17;;;6.87;;
17925;SDS011;9088;55.674;13.354;2023-03-24T06:51:51;7.07;;;6.77;;
17925;SDS011;9088;55.674;13.354;2023-03-24T06:54:19;6.83;;;6.53;;
17925;SDS011;9088;55.674;13.354;2023-03-24T06:56:46;6.40;;;6.20;;
17925;SDS011;9088;55.674;13.354;2023-03-24T06:59:13;7.20;;;6.90;;
17925;SDS011;9088;55.674;13.354;2023-03-24T07:01:43;6.93;;;6.63;;
17925;SDS011;9088;55.674;13.354;2023-03-24T07:04:11;6.67;;;6.40;;
17925;SDS011;9088;55.674;13.354;2023-03-24T07:06:41;6.77;;;6.47;;
17925;SDS011;9088;55.674;13.354;2023-03-24T07:09:09;6.87;;;6.57;;
17925;SDS011;9088;55.674;13.354;2023-03-24T07:11:37;6.10;;;5.90;;
17925;SDS011;9088;55.674;13.354;2023-03-24T07:14:06;6.70;;;6.43;;
17925;SDS011;9088;55.674;13.354;2023-03-24T07:16:33;6.50;;;6.30;;
17925;SDS011;9088;55.674;13.354;2023-03-24T07:19:02;5.97;;;5.77;;
17925;SDS011;9088;55.674;13.354;2023-03-24T07:21:29;5.73;;;5.53;;
17925;SDS011;9088;55.674;13.354;2023-03-24T07:23:56;5.53;;;5.33;;
17925;SDS011;9088;55.674;13.354;2023-03-24T07:26:23;5.90;;;5.70;;
17925;SDS011;9088;55.674;13.354;2023-03-24T07:28:50;5.73;;;5.53;;
17925;SDS011;9088;55.674;13.354;2023-03-24T07:31:17;5.43;;;5.23;;
17925;SDS011;9088;55.674;13.354;2023-03-24T07:33:46;5.90;;;5.70;;
17925;SDS011;9088;55.674;13.354;2023-03-24T07:36:15;5.80;;;5.60;;
17925;SDS011;9088;55.674;13.354;2023-03-24T07:38:42;6.10;;;5.90;;
17925;SDS011;9088;55.674;13.354;2023-03-24T07:41:09;5.67;;;5.47;;
17925;SDS011;9088;55.674;13.354;2023-03-24T07:43:36;5.87;;;5.67;;
17925;SDS011;9088;55.674;13.354;2023-03-24T07:46:03;6.10;;;5.90;;
17925;SDS011;9088;55.674;13.354;2023-03-24T07:48:30;5.80;;;5.60;;
17925;SDS011;9088;55.674;13.354;2023-03-24T07:50:57;5.57;;;5.37;;
17925;SDS011;9088;55.674;13.354;2023-03-24T07:53:25;5.57;;;5.37;;
17925;SDS011;9088;55.674;13.354;2023-03-24T07:55:52;5.53;;;5.33;;
17925;SDS011;9088;55.674;13.354;2023-03-24T07:58:19;5.43;;;5.23;;
17925;SDS011;9088;55.674;13.354;2023-03-24T08:00:46;5.40;;;5.20;;
17925;SDS011;9088;55.674;13.354;2023-03-24T08:03:16;5.40;;;5.20;;
17925;SDS011;9088;55.674;13.354;2023-03-24T08:05:56;5.63;;;5.43;;
17925;SDS011;9088;55.674;13.354;2023-03-24T08:08:23;5.53;;;5.33;;
17925;SDS011;9088;55.674;13.354;2023-03-24T08:10:55;5.13;;;4.93;;
17925;SDS011;9088;55.674;13.354;2023-03-24T08:13:22;5.30;;;5.10;;
17925;SDS011;9088;55.674;13.354;2023-03-24T08:15:49;5.30;;;5.10;;
17925;SDS011;9088;55.674;13.354;2023-03-24T08:18:17;5.50;;;5.30;;
17925;SDS011;9088;55.674;13.354;2023-03-24T08:20:44;5.50;;;5.30;;
17925;SDS011;9088;55.674;13.354;2023-03-24T08:23:11;5.40;;;5.20;;
17925;SDS011;9088;55.674;13.354;2023-03-24T08:25:38;5.10;;;4.90;;
17925;SDS011;9088;55.674;13.354;2023-03-24T08:28:07;5.23;;;5.03;;
17925;SDS011;9088;55.674;13.354;2023-03-24T08:30:34;4.70;;;4.50;;
17925;SDS011;9088;55.674;13.354;2023-03-24T08:33:01;4.80;;;4.60;;
17925;SDS011;9088;55.674;13.354;2023-03-24T08:35:29;4.80;;;4.60;;
17925;SDS011;9088;55.674;13.354;2023-03-24T08:37:57;5.20;;;5.00;;
17925;SDS011;9088;55.674;13.354;2023-03-24T08:40:26;5.20;;;5.00;;
17925;SDS011;9088;55.674;13.354;2023-03-24T08:42:54;5.33;;;5.13;;
17925;SDS011;9088;55.674;13.354;2023-03-24T08:45:26;5.07;;;4.87;;
17925;SDS011;9088;55.674;13.354;2023-03-24T08:47:54;4.10;;;4.00;;
17925;SDS011;9088;55.674;13.354;2023-03-24T08:50:28;4.63;;;4.43;;
17925;SDS011;9088;55.674;13.354;2023-03-24T08:52:59;4.50;;;4.30;;
17925;SDS011;9088;55.674;13.354;2023-03-24T08:55:26;4.70;;;4.50;;
17925;SDS011;9088;55.674;13.354;2023-03-24T08:57:53;4.13;;;4.03;;
17925;SDS011;9088;55.674;13.354;2023-03-24T09:00:20;3.77;;;3.67;;
17925;SDS011;9088;55.674;13.354;2023-03-24T09:02:49;4.30;;;4.13;;
17925;SDS011;9088;55.674;13.354;2023-03-24T09:05:18;4.40;;;4.20;;
17925;SDS011;9088;55.674;13.354;2023-03-24T09:07:46;3.93;;;3.83;;
17925;SDS011;9088;55.674;13.354;2023-03-24T09:10:13;4.20;;;4.10;;
17925;SDS011;9088;55.674;13.354;2023-03-24T09:12:41;4.00;;;3.90;;
17925;SDS011;9088;55.674;13.354;2023-03-24T09:15:09;3.90;;;3.80;;
17925;SDS011;9088;55.674;13.354;2023-03-24T09:17:39;3.90;;;3.80;;
17925;SDS011;9088;55.674;13.354;2023-03-24T09:20:10;4.17;;;4.07;;
17925;SDS011;9088;55.674;13.354;2023-03-24T09:22:41;4.50;;;4.30;;
17925;SDS011;9088;55.674;13.354;2023-03-24T09:25:08;4.33;;;4.20;;
17925;SDS011;9088;55.674;13.354;2023-03-24T09:27:36;4.27;;;4.13;;
17925;SDS011;9088;55.674;13.354;2023-03-24T09:30:07;4.10;;;4.00;;
17925;SDS011;9088;55.674;13.354;2023-03-24T09:32:34;4.27;;;4.13;;
17925;SDS011;9088;55.674;13.354;2023-03-24T09:35:01;4.47;;;4.27;;
17925;SDS011;9088;55.674;13.354;2023-03-24T09:37:34;4.30;;;4.20;;
17925;SDS011;9088;55.674;13.354;2023-03-24T09:40:02;3.87;;;3.77;;
17925;SDS011;9088;55.674;13.354;2023-03-24T09:42:31;4.40;;;4.20;;
17925;SDS011;9088;55.674;13.354;2023-03-24T09:45:00;4.10;;;4.00;;
17925;SDS011;9088;55.674;13.354;2023-03-24T09:47:29;4.50;;;4.30;;
17925;SDS011;9088;55.674;13.354;2023-03-24T09:49:59;4.00;;;3.90;;
17925;SDS011;9088;55.674;13.354;2023-03-24T09:52:28;4.13;;;4.03;;
17925;SDS011;9088;55.674;13.354;2023-03-24T09:54:59;4.43;;;4.23;;
17925;SDS011;9088;55.674;13.354;2023-03-24T09:57:28;4.80;;;4.60;;
17925;SDS011;9088;55.674;13.354;2023-03-24T09:59:55;5.00;;;4.80;;
17925;SDS011;9088;55.674;13.354;2023-03-24T10:02:26;4.60;;;4.40;;
17925;SDS011;9088;55.674;13.354;2023-03-24T10:04:56;4.70;;;4.50;;
17925;SDS011;9088;55.674;13.354;2023-03-24T10:07:26;5.10;;;4.90;;
17925;SDS011;9088;55.674;13.354;2023-03-24T10:09:55;5.13;;;4.93;;
17925;SDS011;9088;55.674;13.354;2023-03-24T10:12:27;5.50;;;5.30;;
17925;SDS011;9088;55.674;13.354;2023-03-24T10:15:02;5.60;;;5.40;;
17925;SDS011;9088;55.674;13.354;2023-03-24T10:17:34;5.77;;;5.57;;
17925;SDS011;9088;55.674;13.354;2023-03-24T10:20:04;5.80;;;5.60;;
17925;SDS011;9088;55.674;13.354;2023-03-24T10:22:37;6.13;;;5.93;;
17925;SDS011;9088;55.674;13.354;2023-03-24T10:25:07;6.00;;;5.80;;
17925;SDS011;9088;55.674;13.354;2023-03-24T10:27:42;5.43;;;5.23;;
17925;SDS011;9088;55.674;13.354;2023-03-24T10:30:13;6.40;;;6.20;;
17925;SDS011;9088;55.674;13.354;2023-03-24T10:32:41;6.00;;;5.80;;
17925;SDS011;9088;55.674;13.354;2023-03-24T10:35:13;5.27;;;5.07;;
17925;SDS011;9088;55.674;13.354;2023-03-24T10:37:40;5.37;;;5.17;;
17925;SDS011;9088;55.674;13.354;2023-03-24T10:40:11;5.73;;;5.53;;
17925;SDS011;9088;55.674;13.354;2023-03-24T10:42:43;5.20;;;5.00;;
17925;SDS011;9088;55.674;13.354;2023-03-24T10:45:11;3.47;;;3.37;;
17925;SDS011;9088;55.674;13.354;2023-03-24T10:47:38;4.77;;;4.57;;
17925;SDS011;9088;55.674;13.354;2023-03-24T10:50:09;4.10;;;4.00;;
17925;SDS011;9088;55.674;13.354;2023-03-24T10:52:39;4.50;;;4.30;;
17925;SDS011;9088;55.674;13.354;2023-03-24T10:55:12;4.90;;;4.70;;
17925;SDS011;9088;55.674;13.354;2023-03-24T10:57:42;4.70;;;4.50;;
17925;SDS011;9088;55.674;13.354;2023-03-24T11:00:14;3.90;;;3.80;;
17925;SDS011;9088;55.674;13.354;2023-03-24T11:02:43;4.50;;;4.30;;
17925;SDS011;9088;55.674;13.354;2023-03-24T11:05:14;4.10;;;4.00;;
17925;SDS011;9088;55.674;13.354;2023-03-24T11:07:43;3.87;;;3.77;;
17925;SDS011;9088;55.674;13.354;2023-03-24T11:10:12;4.10;;;4.00;;
17925;SDS011;9088;55.674;13.354;2023-03-24T11:12:41;3.40;;;3.30;;
17925;SDS011;9088;55.674;13.354;2023-03-24T11:15:23;3.83;;;3.73;;
17925;SDS011;9088;55.674;13.354;2023-03-24T11:17:53;3.83;;;3.73;;
17925;SDS011;9088;55.674;13.354;2023-03-24T11:20:24;4.50;;;4.30;;
17925;SDS011;9088;55.674;13.354;2023-03-24T11:22:55;3.73;;;3.63;;
17925;SDS011;9088;55.674;13.354;2023-03-24T11:25:24;3.60;;;3.50;;
17925;SDS011;9088;55.674;13.354;2023-03-24T11:27:52;3.83;;;3.73;;
17925;SDS011;9088;55.674;13.354;2023-03-24T11:30:24;3.83;;;3.73;;
17925;SDS011;9088;55.674;13.354;2023-03-24T11:32:51;3.93;;;3.83;;
17925;SDS011;9088;55.674;13.354;2023-03-24T11:35:20;3.70;;;3.60;;
17925;SDS011;9088;55.674;13.354;2023-03-24T11:37:47;4.07;;;3.97;;
17925;SDS011;9088;55.674;13.354;2023-03-24T11:40:15;4.10;;;4.00;;
17925;SDS011;9088;55.674;13.354;2023-03-24T11:42:43;3.80;;;3.70;;
17925;SDS011;9088;55.674;13.354;2023-03-24T11:45:22;4.10;;;4.00;;
17925;SDS011;9088;55.674;13.354;2023-03-24T11:47:51;4.10;;;4.00;;
17925;SDS011;9088;55.674;13.354;2023-03-24T11:50:22;4.00;;;3.90;;
17925;SDS011;9088;55.674;13.354;2023-03-24T11:52:51;4.20;;;4.10;;
17925;SDS011;9088;55.674;13.354;2023-03-24T11:55:21;4.60;;;4.40;;
17925;SDS011;9088;55.674;13.354;2023-03-24T11:57:50;4.70;;;4.50;;
17925;SDS011;9088;55.674;13.354;2023-03-24T12:00:20;4.43;;;4.27;;
17925;SDS011;9088;55.674;13.354;2023-03-24T12:02:55;4.23;;;4.13;;
17925;SDS011;9088;55.674;13.354;2023-03-24T12:05:28;4.10;;;4.00;;
17925;SDS011;9088;55.674;13.354;2023-03-24T12:07:59;4.50;;;4.30;;
17925;SDS011;9088;55.674;13.354;2023-03-24T12:10:34;4.57;;;4.37;;
17925;SDS011;9088;55.674;13.354;2023-03-24T12:13:04;4.67;;;4.47;;
17925;SDS011;9088;55.674;13.354;2023-03-24T12:15:38;3.87;;;3.77;;
17925;SDS011;9088;55.674;13.354;2023-03-24T12:18:12;4.60;;;4.40;;
17925;SDS011;9088;55.674;13.354;2023-03-24T12:20:43;4.97;;;4.77;;
17925;SDS011;9088;55.674;13.354;2023-03-24T12:23:12;3.93;;;3.83;;
17925;SDS011;9088;55.674;13.354;2023-03-24T12:25:57;4.77;;;4.57;;
17925;SDS011;9088;55.674;13.354;2023-03-24T12:28:34;4.53;;;4.33;;
17925;SDS011;9088;55.674;13.354;2023-03-24T12:31:12;4.67;;;4.47;;
17925;SDS011;9088;55.674;13.354;2023-03-24T12:33:52;3.97;;;3.87;;
17925;SDS011;9088;55.674;13.354;2023-03-24T12:36:24;4.57;;;4.37;;
17925;SDS011;9088;55.674;13.354;2023-03-24T12:38:58;4.37;;;4.20;;
17925;SDS011;9088;55.674;13.354;2023-03-24T12:41:40;4.77;;;4.57;;
17925;SDS011;9088;55.674;13.354;2023-03-24T12:44:23;5.07;;;4.87;;
17925;SDS011;9088;55.674;13.354;2023-03-24T12:46:55;4.40;;;4.23;;
17925;SDS011;9088;55.674;13.354;2023-03-24T12:49:31;4.43;;;4.23;;
17925;SDS011;9088;55.674;13.354;2023-03-24T12:52:07;5.13;;;4.93;;
17925;SDS011;9088;55.674;13.354;2023-03-24T12:54:41;5.00;;;4.80;;
17925;SDS011;9088;55.674;13.354;2023-03-24T12:57:13;4.77;;;4.57;;
17925;SDS011;9088;55.674;13.354;2023-03-24T12:59:42;4.43;;;4.23;;
17925;SDS011;9088;55.674;13.354;2023-03-24T13:02:11;4.57;;;4.37;;
17925;SDS011;9088;55.674;13.354;2023-03-24T13:04:43;4.27;;;4.17;;
17925;SDS011;9088;55.674;13.354;2023-03-24T13:07:12;4.73;;;4.53;;
17925;SDS011;9088;55.674;13.354;2023-03-24T13:09:44;4.60;;;4.40;;
17925;SDS011;9088;55.674;13.354;2023-03-24T13:12:13;5.03;;;4.82;;
17925;SDS011;9088;55.674;13.354;2023-03-24T13:14:45;4.50;;;4.30;;
17925;SDS011;9088;55.674;13.354;2023-03-24T13:17:16;3.97;;;3.87;;
17925;SDS011;9088;55.674;13.354;2023-03-24T13:19:46;4.77;;;4.57;;
17925;SDS011;9088;55.674;13.354;2023-03-24T13:22:14;4.07;;;3.97;;
17925;SDS011;9088;55.674;13.354;2023-03-24T13:24:42;4.50;;;4.30;;
17925;SDS011;9088;55.674;13.354;2023-03-24T13:27:10;4.27;;;4.17;;
17925;SDS011;9088;55.674;13.354;2023-03-24T13:29:46;4.50;;;4.30;;
17925;SDS011;9088;55.674;13.354;2023-03-24T13:32:19;4.97;;;4.77;;
17925;SDS011;9088;55.674;13.354;2023-03-24T13:34:51;5.50;;;5.30;;
17925;SDS011;9088;55.674;13.354;2023-03-24T13:37:21;6.20;;;6.00;;
17925;SDS011;9088;55.674;13.354;2023-03-24T13:39:50;6.27;;;6.07;;
17925;SDS011;9088;55.674;13.354;2023-03-24T13:42:25;5.80;;;5.60;;
17925;SDS011;9088;55.674;13.354;2023-03-24T13:44:54;6.93;;;6.63;;
17925;SDS011;9088;55.674;13.354;2023-03-24T13:47:23;7.00;;;6.70;;
17925;SDS011;9088;55.674;13.354;2023-03-24T13:49:52;6.03;;;5.83;;
17925;SDS011;9088;55.674;13.354;2023-03-24T13:52:24;6.03;;;5.83;;
17925;SDS011;9088;55.674;13.354;2023-03-24T13:54:53;5.93;;;5.73;;
17925;SDS011;9088;55.674;13.354;2023-03-24T13:57:22;5.83;;;5.63;;
17925;SDS011;9088;55.674;13.354;2023-03-24T13:59:58;6.07;;;5.87;;
17925;SDS011;9088;55.674;13.354;2023-03-24T14:02:40;6.00;;;5.80;;
17925;SDS011;9088;55.674;13.354;2023-03-24T14:05:12;5.60;;;5.40;;
17925;SDS011;9088;55.674;13.354;2023-03-24T14:08:08;6.10;;;5.90;;
17925;SDS011;9088;55.674;13.354;2023-03-24T14:10:37;4.83;;;4.63;;
17925;SDS011;9088;55.674;13.354;2023-03-24T14:13:17;5.63;;;5.43;;
17925;SDS011;9088;55.674;13.354;2023-03-24T14:15:45;4.93;;;4.73;;
17925;SDS011;9088;55.674;13.354;2023-03-24T14:18:15;5.47;;;5.27;;
17925;SDS011;9088;55.674;13.354;2023-03-24T14:21:04;5.10;;;4.90;;
17925;SDS011;9088;55.674;13.354;2023-03-24T14:23:33;4.80;;;4.60;;
17925;SDS011;9088;55.674;13.354;2023-03-24T14:26:02;4.90;;;4.70;;
17925;SDS011;9088;55.674;13.354;2023-03-24T14:28:30;5.33;;;5.13;;
17925;SDS011;9088;55.674;13.354;2023-03-24T14:30:59;5.33;;;5.13;;
17925;SDS011;9088;55.674;13.354;2023-03-24T14:33:27;5.70;;;5.50;;
17925;SDS011;9088;55.674;13.354;2023-03-24T14:35:56;5.57;;;5.37;;
17925;SDS011;9088;55.674;13.354;2023-03-24T14:38:26;6.43;;;6.23;;
17925;SDS011;9088;55.674;13.354;2023-03-24T14:40:55;5.80;;;5.60;;
17925;SDS011;9088;55.674;13.354;2023-03-24T14:43:23;6.27;;;6.07;;
17925;SDS011;9088;55.674;13.354;2023-03-24T14:45:55;6.97;;;6.67;;
17925;SDS011;9088;55.674;13.354;2023-03-24T14:48:26;6.57;;;6.33;;
17925;SDS011;9088;55.674;13.354;2023-03-24T14:50:54;7.27;;;6.97;;
17925;SDS011;9088;55.674;13.354;2023-03-24T14:53:24;6.67;;;6.40;;
17925;SDS011;9088;55.674;13.354;2023-03-24T14:55:53;6.10;;;5.90;;
17925;SDS011;9088;55.674;13.354;2023-03-24T14:58:21;5.40;;;5.20;;
17925;SDS011;9088;55.674;13.354;2023-03-24T15:00:50;5.70;;;5.50;;
17925;SDS011;9088;55.674;13.354;2023-03-24T15:03:20;6.13;;;5.93;;
17925;SDS011;9088;55.674;13.354;2023-03-24T15:05:49;5.43;;;5.23;;
17925;SDS011;9088;55.674;13.354;2023-03-24T15:08:17;5.50;;;5.30;;
17925;SDS011;9088;55.674;13.354;2023-03-24T15:10:47;5.47;;;5.27;;